Terminal Aerodrome Forecast
Issued by NWS Quad Cities IA IL

Home | Current Version | Previous Version | Text Only | Print | Product List | Glossary On
Versions: 1 2 3 4 5 6 7 8 9 10 11 12 13 14 15 16 17 18 19 20 21 22
000
FTUS43 KDVN 210700 AAA
TAFMLI
TAF AMD
KMLI 210750Z 2108/2206 17008KT 4SM -DZ BR OVC015
     FM211400 18011KT 3SM BR OVC008
     FM211800 18013G20KT 6SM BR OVC015=

USA.gov is the U.S. government's official web portal to all federal, state and local government web resources and services.